sensor_id;sensor_type;location;lat;lon;timestamp;P1;durP1;ratioP1;P2;durP2;ratioP2
41343;SDS011;27089;50.022;7.604;2023-11-21T00:01:20;1.10;;;1.00;;
41343;SDS011;27089;50.022;7.604;2023-11-21T00:03:47;1.37;;;1.00;;
41343;SDS011;27089;50.022;7.604;2023-11-21T00:06:14;1.40;;;1.00;;
41343;SDS011;27089;50.022;7.604;2023-11-21T00:08:42;1.53;;;1.07;;
41343;SDS011;27089;50.022;7.604;2023-11-21T00:11:09;1.30;;;1.10;;
41343;SDS011;27089;50.022;7.604;2023-11-21T00:13:36;3.63;;;1.20;;
41343;SDS011;27089;50.022;7.604;2023-11-21T00:16:03;1.37;;;0.97;;
41343;SDS011;27089;50.022;7.604;2023-11-21T00:18:30;1.87;;;1.20;;
41343;SDS011;27089;50.022;7.604;2023-11-21T00:20:57;6.03;;;0.90;;
41343;SDS011;27089;50.022;7.604;2023-11-21T00:23:25;2.77;;;1.00;;
41343;SDS011;27089;50.022;7.604;2023-11-21T00:25:53;1.43;;;1.10;;
41343;SDS011;27089;50.022;7.604;2023-11-21T00:28:20;1.43;;;1.20;;
41343;SDS011;27089;50.022;7.604;2023-11-21T00:30:47;1.17;;;0.97;;
41343;SDS011;27089;50.022;7.604;2023-11-21T00:33:14;1.00;;;0.90;;
41343;SDS011;27089;50.022;7.604;2023-11-21T00:35:41;4.97;;;1.10;;
41343;SDS011;27089;50.022;7.604;2023-11-21T00:38:08;2.07;;;1.40;;
41343;SDS011;27089;50.022;7.604;2023-11-21T00:40:35;2.40;;;1.10;;
41343;SDS011;27089;50.022;7.604;2023-11-21T00:43:04;3.27;;;1.30;;
41343;SDS011;27089;50.022;7.604;2023-11-21T00:45:31;3.33;;;1.27;;
41343;SDS011;27089;50.022;7.604;2023-11-21T00:47:58;5.17;;;2.90;;
41343;SDS011;27089;50.022;7.604;2023-11-21T00:50:25;2.10;;;1.70;;
41343;SDS011;27089;50.022;7.604;2023-11-21T00:52:52;2.13;;;1.60;;
41343;SDS011;27089;50.022;7.604;2023-11-21T00:55:19;1.83;;;1.47;;
41343;SDS011;27089;50.022;7.604;2023-11-21T00:57:46;1.70;;;1.43;;
41343;SDS011;27089;50.022;7.604;2023-11-21T01:00:15;1.57;;;1.40;;
41343;SDS011;27089;50.022;7.604;2023-11-21T01:02:43;1.50;;;1.40;;
41343;SDS011;27089;50.022;7.604;2023-11-21T01:05:10;1.67;;;1.30;;
41343;SDS011;27089;50.022;7.604;2023-11-21T01:07:37;1.90;;;1.40;;
41343;SDS011;27089;50.022;7.604;2023-11-21T01:10:04;1.50;;;1.40;;
41343;SDS011;27089;50.022;7.604;2023-11-21T01:12:32;2.97;;;1.70;;
41343;SDS011;27089;50.022;7.604;2023-11-21T01:15:00;2.03;;;1.63;;
41343;SDS011;27089;50.022;7.604;2023-11-21T01:17:28;2.17;;;1.40;;
41343;SDS011;27089;50.022;7.604;2023-11-21T01:19:55;1.60;;;1.50;;
41343;SDS011;27089;50.022;7.604;2023-11-21T01:22:22;1.97;;;1.83;;
41343;SDS011;27089;50.022;7.604;2023-11-21T01:24:51;2.43;;;2.23;;
41343;SDS011;27089;50.022;7.604;2023-11-21T01:27:18;0.73;;;0.70;;
41343;SDS011;27089;50.022;7.604;2023-11-21T01:29:46;1.33;;;0.70;;
41343;SDS011;27089;50.022;7.604;2023-11-21T01:32:13;0.40;;;0.40;;
41343;SDS011;27089;50.022;7.604;2023-11-21T01:34:42;0.50;;;0.50;;
41343;SDS011;27089;50.022;7.604;2023-11-21T01:37:09;0.50;;;0.50;;
41343;SDS011;27089;50.022;7.604;2023-11-21T01:39:37;0.50;;;0.27;;
41343;SDS011;27089;50.022;7.604;2023-11-21T01:42:05;0.60;;;0.60;;
41343;SDS011;27089;50.022;7.604;2023-11-21T01:44:33;0.97;;;0.30;;
41343;SDS011;27089;50.022;7.604;2023-11-21T01:47:00;1.30;;;0.50;;
41343;SDS011;27089;50.022;7.604;2023-11-21T01:49:30;0.40;;;0.40;;
41343;SDS011;27089;50.022;7.604;2023-11-21T01:51:59;0.30;;;0.20;;
41343;SDS011;27089;50.022;7.604;2023-11-21T01:54:27;2.23;;;0.27;;
41343;SDS011;27089;50.022;7.604;2023-11-21T01:56:56;0.77;;;0.50;;
41343;SDS011;27089;50.022;7.604;2023-11-21T01:59:29;1.50;;;1.40;;
41343;SDS011;27089;50.022;7.604;2023-11-21T02:02:00;0.87;;;0.50;;
41343;SDS011;27089;50.022;7.604;2023-11-21T02:04:27;0.50;;;0.40;;
41343;SDS011;27089;50.022;7.604;2023-11-21T02:06:54;1.67;;;0.50;;
41343;SDS011;27089;50.022;7.604;2023-11-21T02:09:25;1.33;;;0.80;;
41343;SDS011;27089;50.022;7.604;2023-11-21T02:11:52;0.80;;;0.80;;
41343;SDS011;27089;50.022;7.604;2023-11-21T02:14:20;0.20;;;0.20;;
41343;SDS011;27089;50.022;7.604;2023-11-21T02:16:48;1.03;;;1.00;;
41343;SDS011;27089;50.022;7.604;2023-11-21T02:19:17;0.70;;;0.70;;
41343;SDS011;27089;50.022;7.604;2023-11-21T02:21:48;2.67;;;1.03;;
41343;SDS011;27089;50.022;7.604;2023-11-21T02:24:18;0.73;;;0.70;;
41343;SDS011;27089;50.022;7.604;2023-11-21T02:26:45;1.30;;;1.00;;
41343;SDS011;27089;50.022;7.604;2023-11-21T02:29:12;1.10;;;0.80;;
41343;SDS011;27089;50.022;7.604;2023-11-21T02:31:41;1.30;;;1.17;;
41343;SDS011;27089;50.022;7.604;2023-11-21T02:34:13;1.30;;;1.20;;
41343;SDS011;27089;50.022;7.604;2023-11-21T02:36:40;2.33;;;1.20;;
41343;SDS011;27089;50.022;7.604;2023-11-21T02:39:08;1.20;;;1.10;;
41343;SDS011;27089;50.022;7.604;2023-11-21T02:41:37;1.10;;;0.97;;
41343;SDS011;27089;50.022;7.604;2023-11-21T02:44:05;1.83;;;1.33;;
41343;SDS011;27089;50.022;7.604;2023-11-21T02:46:32;1.67;;;1.57;;
41343;SDS011;27089;50.022;7.604;2023-11-21T02:49:00;1.53;;;1.40;;
41343;SDS011;27089;50.022;7.604;2023-11-21T02:51:27;2.67;;;1.40;;
41343;SDS011;27089;50.022;7.604;2023-11-21T02:53:54;2.20;;;1.30;;
41343;SDS011;27089;50.022;7.604;2023-11-21T02:56:24;1.50;;;1.40;;
41343;SDS011;27089;50.022;7.604;2023-11-21T02:58:55;1.87;;;1.77;;
41343;SDS011;27089;50.022;7.604;2023-11-21T03:01:22;3.93;;;2.67;;
41343;SDS011;27089;50.022;7.604;2023-11-21T03:03:50;2.10;;;1.60;;
41343;SDS011;27089;50.022;7.604;2023-11-21T03:06:17;2.53;;;1.70;;
41343;SDS011;27089;50.022;7.604;2023-11-21T03:08:44;2.43;;;1.70;;
41343;SDS011;27089;50.022;7.604;2023-11-21T03:11:11;2.57;;;2.13;;
41343;SDS011;27089;50.022;7.604;2023-11-21T03:13:39;2.20;;;1.70;;
41343;SDS011;27089;50.022;7.604;2023-11-21T03:16:08;3.90;;;1.60;;
41343;SDS011;27089;50.022;7.604;2023-11-21T03:18:35;3.20;;;1.87;;
41343;SDS011;27089;50.022;7.604;2023-11-21T03:21:02;2.97;;;1.90;;
41343;SDS011;27089;50.022;7.604;2023-11-21T03:23:30;6.93;;;1.73;;
41343;SDS011;27089;50.022;7.604;2023-11-21T03:25:57;3.70;;;2.07;;
41343;SDS011;27089;50.022;7.604;2023-11-21T03:28:24;2.53;;;1.93;;
41343;SDS011;27089;50.022;7.604;2023-11-21T03:30:51;2.73;;;2.03;;
41343;SDS011;27089;50.022;7.604;2023-11-21T03:33:20;2.27;;;1.60;;
41343;SDS011;27089;50.022;7.604;2023-11-21T03:35:47;2.33;;;1.70;;
41343;SDS011;27089;50.022;7.604;2023-11-21T03:38:14;2.33;;;2.00;;
41343;SDS011;27089;50.022;7.604;2023-11-21T03:40:41;2.10;;;1.80;;
41343;SDS011;27089;50.022;7.604;2023-11-21T03:43:08;2.90;;;2.50;;
41343;SDS011;27089;50.022;7.604;2023-11-21T03:45:35;5.13;;;2.23;;
41343;SDS011;27089;50.022;7.604;2023-11-21T03:48:02;3.27;;;2.07;;
41343;SDS011;27089;50.022;7.604;2023-11-21T03:50:30;2.40;;;1.70;;
41343;SDS011;27089;50.022;7.604;2023-11-21T03:52:57;3.47;;;3.03;;
41343;SDS011;27089;50.022;7.604;2023-11-21T03:55:24;3.60;;;2.40;;
41343;SDS011;27089;50.022;7.604;2023-11-21T03:57:51;3.53;;;2.00;;
41343;SDS011;27089;50.022;7.604;2023-11-21T04:00:18;2.10;;;1.90;;
41343;SDS011;27089;50.022;7.604;2023-11-21T04:02:46;4.00;;;2.00;;
41343;SDS011;27089;50.022;7.604;2023-11-21T04:05:13;4.03;;;1.90;;
41343;SDS011;27089;50.022;7.604;2023-11-21T04:07:41;1.87;;;1.53;;
41343;SDS011;27089;50.022;7.604;2023-11-21T04:10:08;3.90;;;1.90;;
41343;SDS011;27089;50.022;7.604;2023-11-21T04:12:37;1.83;;;1.57;;
41343;SDS011;27089;50.022;7.604;2023-11-21T04:15:05;2.30;;;1.60;;
41343;SDS011;27089;50.022;7.604;2023-11-21T04:17:33;4.37;;;2.10;;
41343;SDS011;27089;50.022;7.604;2023-11-21T04:20:01;2.37;;;2.17;;
41343;SDS011;27089;50.022;7.604;2023-11-21T04:22:28;1.87;;;1.77;;
41343;SDS011;27089;50.022;7.604;2023-11-21T04:24:57;1.90;;;1.43;;
41343;SDS011;27089;50.022;7.604;2023-11-21T04:27:24;2.30;;;1.90;;
41343;SDS011;27089;50.022;7.604;2023-11-21T04:29:51;2.60;;;1.70;;
41343;SDS011;27089;50.022;7.604;2023-11-21T04:32:18;1.60;;;1.50;;
41343;SDS011;27089;50.022;7.604;2023-11-21T04:34:45;1.50;;;1.40;;
41343;SDS011;27089;50.022;7.604;2023-11-21T04:37:12;1.60;;;1.40;;
41343;SDS011;27089;50.022;7.604;2023-11-21T04:39:39;3.03;;;1.87;;
41343;SDS011;27089;50.022;7.604;2023-11-21T04:42:07;3.03;;;1.77;;
41343;SDS011;27089;50.022;7.604;2023-11-21T04:44:34;3.40;;;2.90;;
41343;SDS011;27089;50.022;7.604;2023-11-21T04:47:01;12.83;;;4.10;;
41343;SDS011;27089;50.022;7.604;2023-11-21T04:49:30;8.07;;;3.77;;
41343;SDS011;27089;50.022;7.604;2023-11-21T04:51:57;4.70;;;3.20;;
41343;SDS011;27089;50.022;7.604;2023-11-21T04:54:23;3.10;;;2.13;;
41343;SDS011;27089;50.022;7.604;2023-11-21T04:56:50;4.00;;;2.30;;
41343;SDS011;27089;50.022;7.604;2023-11-21T04:59:20;6.53;;;3.67;;
41343;SDS011;27089;50.022;7.604;2023-11-21T05:01:49;5.40;;;3.10;;
41343;SDS011;27089;50.022;7.604;2023-11-21T05:04:16;2.43;;;1.80;;
41343;SDS011;27089;50.022;7.604;2023-11-21T05:06:43;3.00;;;1.80;;
41343;SDS011;27089;50.022;7.604;2023-11-21T05:09:11;2.90;;;2.10;;
41343;SDS011;27089;50.022;7.604;2023-11-21T05:11:38;1.87;;;1.57;;
41343;SDS011;27089;50.022;7.604;2023-11-21T05:14:06;2.20;;;1.40;;
41343;SDS011;27089;50.022;7.604;2023-11-21T05:16:33;2.40;;;1.80;;
41343;SDS011;27089;50.022;7.604;2023-11-21T05:19:01;3.07;;;1.60;;
41343;SDS011;27089;50.022;7.604;2023-11-21T05:21:29;1.87;;;1.50;;
41343;SDS011;27089;50.022;7.604;2023-11-21T05:23:56;3.53;;;3.13;;
41343;SDS011;27089;50.022;7.604;2023-11-21T05:26:24;2.10;;;1.63;;
41343;SDS011;27089;50.022;7.604;2023-11-21T05:28:51;3.50;;;2.03;;
41343;SDS011;27089;50.022;7.604;2023-11-21T05:31:17;1.50;;;1.40;;
41343;SDS011;27089;50.022;7.604;2023-11-21T05:33:46;2.47;;;1.70;;
41343;SDS011;27089;50.022;7.604;2023-11-21T05:36:13;1.60;;;1.30;;
41343;SDS011;27089;50.022;7.604;2023-11-21T05:38:40;1.73;;;1.30;;
41343;SDS011;27089;50.022;7.604;2023-11-21T05:41:07;6.43;;;1.50;;
41343;SDS011;27089;50.022;7.604;2023-11-21T05:43:36;3.47;;;1.60;;
41343;SDS011;27089;50.022;7.604;2023-11-21T05:46:03;2.10;;;1.20;;
41343;SDS011;27089;50.022;7.604;2023-11-21T05:48:32;2.70;;;1.70;;
41343;SDS011;27089;50.022;7.604;2023-11-21T05:51:00;2.80;;;1.10;;
41343;SDS011;27089;50.022;7.604;2023-11-21T05:53:27;1.80;;;1.37;;
41343;SDS011;27089;50.022;7.604;2023-11-21T05:55:54;2.00;;;1.10;;
41343;SDS011;27089;50.022;7.604;2023-11-21T05:58:22;1.37;;;1.10;;
41343;SDS011;27089;50.022;7.604;2023-11-21T06:00:49;1.50;;;1.23;;
41343;SDS011;27089;50.022;7.604;2023-11-21T06:03:16;2.67;;;1.40;;
41343;SDS011;27089;50.022;7.604;2023-11-21T06:05:43;2.13;;;1.50;;
41343;SDS011;27089;50.022;7.604;2023-11-21T06:08:11;1.37;;;1.10;;
41343;SDS011;27089;50.022;7.604;2023-11-21T06:10:38;3.30;;;1.30;;
41343;SDS011;27089;50.022;7.604;2023-11-21T06:13:05;2.57;;;1.30;;
41343;SDS011;27089;50.022;7.604;2023-11-21T06:15:33;1.53;;;1.20;;
41343;SDS011;27089;50.022;7.604;2023-11-21T06:18:01;1.67;;;1.23;;
41343;SDS011;27089;50.022;7.604;2023-11-21T06:20:28;1.33;;;1.10;;
41343;SDS011;27089;50.022;7.604;2023-11-21T06:22:55;1.90;;;1.70;;
41343;SDS011;27089;50.022;7.604;2023-11-21T06:25:23;2.53;;;1.30;;
41343;SDS011;27089;50.022;7.604;2023-11-21T06:27:50;2.27;;;1.90;;
41343;SDS011;27089;50.022;7.604;2023-11-21T06:30:18;3.23;;;1.63;;
41343;SDS011;27089;50.022;7.604;2023-11-21T06:32:46;1.60;;;1.20;;
41343;SDS011;27089;50.022;7.604;2023-11-21T06:35:15;3.30;;;1.40;;
41343;SDS011;27089;50.022;7.604;2023-11-21T06:37:42;3.13;;;1.40;;
41343;SDS011;27089;50.022;7.604;2023-11-21T06:40:12;1.83;;;1.30;;
41343;SDS011;27089;50.022;7.604;2023-11-21T06:42:41;4.50;;;1.43;;
41343;SDS011;27089;50.022;7.604;2023-11-21T06:45:09;2.07;;;1.70;;
41343;SDS011;27089;50.022;7.604;2023-11-21T06:47:37;2.50;;;1.80;;
41343;SDS011;27089;50.022;7.604;2023-11-21T06:50:05;3.50;;;1.73;;
41343;SDS011;27089;50.022;7.604;2023-11-21T06:52:32;4.33;;;1.80;;
41343;SDS011;27089;50.022;7.604;2023-11-21T06:54:59;3.03;;;1.77;;
41343;SDS011;27089;50.022;7.604;2023-11-21T06:57:27;3.63;;;1.73;;
41343;SDS011;27089;50.022;7.604;2023-11-21T06:59:55;4.20;;;1.97;;
41343;SDS011;27089;50.022;7.604;2023-11-21T07:02:22;3.27;;;1.63;;
41343;SDS011;27089;50.022;7.604;2023-11-21T07:04:49;3.73;;;1.97;;
41343;SDS011;27089;50.022;7.604;2023-11-21T07:07:16;4.00;;;2.03;;
41343;SDS011;27089;50.022;7.604;2023-11-21T07:09:44;5.10;;;2.27;;
41343;SDS011;27089;50.022;7.604;2023-11-21T07:12:11;3.47;;;1.80;;
41343;SDS011;27089;50.022;7.604;2023-11-21T07:14:39;3.00;;;1.63;;
41343;SDS011;27089;50.022;7.604;2023-11-21T07:17:09;4.43;;;3.23;;
41343;SDS011;27089;50.022;7.604;2023-11-21T07:19:37;3.80;;;2.00;;
41343;SDS011;27089;50.022;7.604;2023-11-21T07:22:04;4.70;;;3.87;;
41343;SDS011;27089;50.022;7.604;2023-11-21T07:24:31;3.63;;;2.20;;
41343;SDS011;27089;50.022;7.604;2023-11-21T07:26:58;3.97;;;2.57;;
41343;SDS011;27089;50.022;7.604;2023-11-21T07:29:26;3.90;;;2.23;;
41343;SDS011;27089;50.022;7.604;2023-11-21T07:31:54;3.87;;;2.40;;
41343;SDS011;27089;50.022;7.604;2023-11-21T07:34:23;3.23;;;2.10;;
41343;SDS011;27089;50.022;7.604;2023-11-21T07:36:50;2.13;;;1.80;;
41343;SDS011;27089;50.022;7.604;2023-11-21T07:39:17;3.27;;;2.27;;
41343;SDS011;27089;50.022;7.604;2023-11-21T07:41:44;3.60;;;1.97;;
41343;SDS011;27089;50.022;7.604;2023-11-21T07:44:13;3.73;;;2.30;;
41343;SDS011;27089;50.022;7.604;2023-11-21T07:46:41;2.57;;;2.37;;
41343;SDS011;27089;50.022;7.604;2023-11-21T07:49:08;3.67;;;2.50;;
41343;SDS011;27089;50.022;7.604;2023-11-21T07:51:36;3.60;;;2.70;;
41343;SDS011;27089;50.022;7.604;2023-11-21T07:54:03;3.40;;;2.10;;
41343;SDS011;27089;50.022;7.604;2023-11-21T07:56:31;3.17;;;2.47;;
41343;SDS011;27089;50.022;7.604;2023-11-21T07:58:58;4.03;;;3.13;;
41343;SDS011;27089;50.022;7.604;2023-11-21T08:01:25;4.87;;;2.50;;
41343;SDS011;27089;50.022;7.604;2023-11-21T08:03:53;4.10;;;2.93;;
41343;SDS011;27089;50.022;7.604;2023-11-21T08:06:22;3.90;;;2.50;;
41343;SDS011;27089;50.022;7.604;2023-11-21T08:08:52;3.97;;;2.40;;
41343;SDS011;27089;50.022;7.604;2023-11-21T08:11:19;3.13;;;2.40;;
41343;SDS011;27089;50.022;7.604;2023-11-21T08:13:46;3.70;;;2.30;;
41343;SDS011;27089;50.022;7.604;2023-11-21T08:16:14;3.87;;;3.47;;
41343;SDS011;27089;50.022;7.604;2023-11-21T08:18:42;6.23;;;3.47;;
41343;SDS011;27089;50.022;7.604;2023-11-21T08:21:09;4.10;;;3.00;;
41343;SDS011;27089;50.022;7.604;2023-11-21T08:23:37;4.90;;;3.00;;
41343;SDS011;27089;50.022;7.604;2023-11-21T08:26:06;4.47;;;3.33;;
41343;SDS011;27089;50.022;7.604;2023-11-21T08:28:34;4.10;;;2.80;;
41343;SDS011;27089;50.022;7.604;2023-11-21T08:31:01;6.83;;;4.00;;
41343;SDS011;27089;50.022;7.604;2023-11-21T08:33:29;7.47;;;4.33;;
41343;SDS011;27089;50.022;7.604;2023-11-21T08:35:56;5.03;;;3.37;;
41343;SDS011;27089;50.022;7.604;2023-11-21T08:38:23;18.00;;;11.97;;
41343;SDS011;27089;50.022;7.604;2023-11-21T08:40:50;7.73;;;4.00;;
41343;SDS011;27089;50.022;7.604;2023-11-21T08:43:18;8.73;;;4.20;;
41343;SDS011;27089;50.022;7.604;2023-11-21T08:45:46;9.93;;;6.30;;
41343;SDS011;27089;50.022;7.604;2023-11-21T08:48:13;20.47;;;12.53;;
41343;SDS011;27089;50.022;7.604;2023-11-21T08:50:40;8.87;;;5.27;;
41343;SDS011;27089;50.022;7.604;2023-11-21T08:53:07;10.97;;;8.73;;
41343;SDS011;27089;50.022;7.604;2023-11-21T08:55:33;72.17;;;40.77;;
41343;SDS011;27089;50.022;7.604;2023-11-21T08:58:02;52.60;;;33.97;;
41343;SDS011;27089;50.022;7.604;2023-11-21T09:00:32;13.37;;;8.97;;
41343;SDS011;27089;50.022;7.604;2023-11-21T09:03:00;10.63;;;7.07;;
41343;SDS011;27089;50.022;7.604;2023-11-21T09:05:28;7.37;;;4.80;;
41343;SDS011;27089;50.022;7.604;2023-11-21T09:07:55;7.23;;;4.57;;
41343;SDS011;27089;50.022;7.604;2023-11-21T09:10:22;6.63;;;4.60;;
41343;SDS011;27089;50.022;7.604;2023-11-21T09:12:50;6.23;;;4.53;;
41343;SDS011;27089;50.022;7.604;2023-11-21T09:15:18;6.83;;;4.83;;
41343;SDS011;27089;50.022;7.604;2023-11-21T09:17:47;7.60;;;4.17;;
41343;SDS011;27089;50.022;7.604;2023-11-21T09:20:14;8.30;;;4.90;;
41343;SDS011;27089;50.022;7.604;2023-11-21T09:22:41;9.83;;;5.60;;
41343;SDS011;27089;50.022;7.604;2023-11-21T09:25:09;8.17;;;4.83;;
41343;SDS011;27089;50.022;7.604;2023-11-21T09:27:37;7.47;;;4.53;;
41343;SDS011;27089;50.022;7.604;2023-11-21T09:30:05;8.30;;;4.77;;
41343;SDS011;27089;50.022;7.604;2023-11-21T09:32:35;8.03;;;4.90;;
41343;SDS011;27089;50.022;7.604;2023-11-21T09:35:04;6.17;;;4.63;;
41343;SDS011;27089;50.022;7.604;2023-11-21T09:37:33;8.53;;;5.33;;
41343;SDS011;27089;50.022;7.604;2023-11-21T09:40:01;9.43;;;5.07;;
41343;SDS011;27089;50.022;7.604;2023-11-21T09:42:30;8.67;;;5.30;;
41343;SDS011;27089;50.022;7.604;2023-11-21T09:45:03;9.43;;;5.47;;
41343;SDS011;27089;50.022;7.604;2023-11-21T09:47:34;5.90;;;4.13;;
41343;SDS011;27089;50.022;7.604;2023-11-21T09:50:07;6.27;;;4.40;;
41343;SDS011;27089;50.022;7.604;2023-11-21T09:52:42;6.33;;;4.13;;
41343;SDS011;27089;50.022;7.604;2023-11-21T09:55:16;6.40;;;4.23;;
41343;SDS011;27089;50.022;7.604;2023-11-21T09:57:46;6.13;;;4.40;;
41343;SDS011;27089;50.022;7.604;2023-11-21T10:00:15;6.97;;;4.23;;
41343;SDS011;27089;50.022;7.604;2023-11-21T10:02:45;8.20;;;5.30;;
41343;SDS011;27089;50.022;7.604;2023-11-21T10:05:16;8.30;;;6.43;;
41343;SDS011;27089;50.022;7.604;2023-11-21T10:07:44;10.67;;;5.70;;
41343;SDS011;27089;50.022;7.604;2023-11-21T10:10:13;9.50;;;6.07;;
41343;SDS011;27089;50.022;7.604;2023-11-21T10:12:41;7.80;;;5.70;;
41343;SDS011;27089;50.022;7.604;2023-11-21T10:15:09;7.70;;;5.80;;
41343;SDS011;27089;50.022;7.604;2023-11-21T10:17:41;11.33;;;6.50;;
41343;SDS011;27089;50.022;7.604;2023-11-21T10:20:10;8.50;;;6.30;;
41343;SDS011;27089;50.022;7.604;2023-11-21T10:22:40;9.03;;;5.67;;
41343;SDS011;27089;50.022;7.604;2023-11-21T10:25:08;7.17;;;4.00;;
41343;SDS011;27089;50.022;7.604;2023-11-21T10:27:36;5.37;;;4.27;;
41343;SDS011;27089;50.022;7.604;2023-11-21T10:30:04;7.57;;;4.83;;
41343;SDS011;27089;50.022;7.604;2023-11-21T10:32:32;11.37;;;6.13;;
41343;SDS011;27089;50.022;7.604;2023-11-21T10:35:00;8.17;;;5.10;;
41343;SDS011;27089;50.022;7.604;2023-11-21T10:37:32;5.83;;;3.90;;
41343;SDS011;27089;50.022;7.604;2023-11-21T10:40:01;10.57;;;5.70;;
41343;SDS011;27089;50.022;7.604;2023-11-21T10:42:31;8.60;;;5.43;;
41343;SDS011;27089;50.022;7.604;2023-11-21T10:44:58;7.13;;;5.63;;
41343;SDS011;27089;50.022;7.604;2023-11-21T10:47:27;10.20;;;5.93;;
41343;SDS011;27089;50.022;7.604;2023-11-21T10:49:54;6.87;;;4.87;;
41343;SDS011;27089;50.022;7.604;2023-11-21T10:52:24;13.23;;;6.20;;
41343;SDS011;27089;50.022;7.604;2023-11-21T10:54:54;6.43;;;5.30;;
41343;SDS011;27089;50.022;7.604;2023-11-21T10:57:22;9.63;;;5.80;;
41343;SDS011;27089;50.022;7.604;2023-11-21T10:59:50;9.57;;;5.00;;
41343;SDS011;27089;50.022;7.604;2023-11-21T11:02:22;9.77;;;6.50;;
41343;SDS011;27089;50.022;7.604;2023-11-21T11:04:54;11.23;;;5.27;;
41343;SDS011;27089;50.022;7.604;2023-11-21T11:07:23;10.13;;;7.20;;
41343;SDS011;27089;50.022;7.604;2023-11-21T11:09:53;14.37;;;7.97;;
41343;SDS011;27089;50.022;7.604;2023-11-21T11:12:23;14.33;;;8.03;;
41343;SDS011;27089;50.022;7.604;2023-11-21T11:14:50;9.20;;;6.03;;
41343;SDS011;27089;50.022;7.604;2023-11-21T11:17:18;9.13;;;5.70;;
41343;SDS011;27089;50.022;7.604;2023-11-21T11:19:46;9.13;;;5.93;;
41343;SDS011;27089;50.022;7.604;2023-11-21T11:22:17;8.00;;;5.67;;
41343;SDS011;27089;50.022;7.604;2023-11-21T11:25:03;8.90;;;5.90;;
41343;SDS011;27089;50.022;7.604;2023-11-21T11:27:48;8.63;;;5.83;;
41343;SDS011;27089;50.022;7.604;2023-11-21T11:30:24;8.73;;;5.57;;
41343;SDS011;27089;50.022;7.604;2023-11-21T11:33:08;10.53;;;5.97;;
41343;SDS011;27089;50.022;7.604;2023-11-21T11:35:42;11.03;;;5.53;;
41343;SDS011;27089;50.022;7.604;2023-11-21T11:38:30;9.40;;;5.40;;
41343;SDS011;27089;50.022;7.604;2023-11-21T11:41:00;10.30;;;5.73;;
41343;SDS011;27089;50.022;7.604;2023-11-21T11:43:30;7.83;;;5.13;;
41343;SDS011;27089;50.022;7.604;2023-11-21T11:46:05;10.20;;;5.27;;
41343;SDS011;27089;50.022;7.604;2023-11-21T11:48:34;10.23;;;6.13;;
41343;SDS011;27089;50.022;7.604;2023-11-21T11:51:05;8.50;;;5.50;;
41343;SDS011;27089;50.022;7.604;2023-11-21T11:53:38;8.43;;;5.40;;
41343;SDS011;27089;50.022;7.604;2023-11-21T11:56:22;9.00;;;5.27;;
41343;SDS011;27089;50.022;7.604;2023-11-21T11:58:53;8.53;;;5.93;;
41343;SDS011;27089;50.022;7.604;2023-11-21T12:01:21;8.47;;;5.50;;
41343;SDS011;27089;50.022;7.604;2023-11-21T12:06:56;8.90;;;5.57;;
41343;SDS011;27089;50.022;7.604;2023-11-21T12:09:27;11.70;;;6.33;;
41343;SDS011;27089;50.022;7.604;2023-11-21T12:11:56;8.30;;;5.67;;
41343;SDS011;27089;50.022;7.604;2023-11-21T12:14:25;8.90;;;5.73;;
41343;SDS011;27089;50.022;7.604;2023-11-21T12:16:52;6.60;;;4.93;;
41343;SDS011;27089;50.022;7.604;2023-11-21T12:19:20;11.80;;;7.10;;
41343;SDS011;27089;50.022;7.604;2023-11-21T12:21:48;9.80;;;6.10;;
41343;SDS011;27089;50.022;7.604;2023-11-21T12:24:15;14.17;;;6.10;;
41343;SDS011;27089;50.022;7.604;2023-11-21T12:26:43;11.03;;;7.33;;
41343;SDS011;27089;50.022;7.604;2023-11-21T12:29:10;10.17;;;5.57;;
41343;SDS011;27089;50.022;7.604;2023-11-21T12:31:39;8.67;;;5.67;;
41343;SDS011;27089;50.022;7.604;2023-11-21T12:34:06;13.23;;;5.60;;
41343;SDS011;27089;50.022;7.604;2023-11-21T12:36:36;8.00;;;5.17;;
41343;SDS011;27089;50.022;7.604;2023-11-21T12:39:04;9.70;;;5.27;;
41343;SDS011;27089;50.022;7.604;2023-11-21T12:41:34;7.23;;;5.07;;
41343;SDS011;27089;50.022;7.604;2023-11-21T12:44:01;8.30;;;5.73;;
41343;SDS011;27089;50.022;7.604;2023-11-21T12:46:28;8.43;;;5.53;;
41343;SDS011;27089;50.022;7.604;2023-11-21T12:48:59;8.17;;;6.20;;
41343;SDS011;27089;50.022;7.604;2023-11-21T12:51:26;8.80;;;5.53;;
41343;SDS011;27089;50.022;7.604;2023-11-21T12:53:54;8.17;;;5.67;;
41343;SDS011;27089;50.022;7.604;2023-11-21T12:56:23;10.17;;;6.43;;
41343;SDS011;27089;50.022;7.604;2023-11-21T12:58:53;10.20;;;6.20;;
41343;SDS011;27089;50.022;7.604;2023-11-21T13:01:25;11.30;;;6.80;;
41343;SDS011;27089;50.022;7.604;2023-11-21T13:03:53;11.70;;;6.13;;
41343;SDS011;27089;50.022;7.604;2023-11-21T13:06:21;9.87;;;6.33;;
41343;SDS011;27089;50.022;7.604;2023-11-21T13:08:51;11.40;;;6.37;;
41343;SDS011;27089;50.022;7.604;2023-11-21T13:11:19;8.57;;;5.43;;
41343;SDS011;27089;50.022;7.604;2023-11-21T13:13:46;10.90;;;6.13;;
41343;SDS011;27089;50.022;7.604;2023-11-21T13:16:14;11.13;;;5.97;;
41343;SDS011;27089;50.022;7.604;2023-11-21T13:18:41;9.27;;;5.40;;
41343;SDS011;27089;50.022;7.604;2023-11-21T13:21:09;9.53;;;5.37;;
41343;SDS011;27089;50.022;7.604;2023-11-21T13:23:40;11.30;;;6.97;;
41343;SDS011;27089;50.022;7.604;2023-11-21T13:26:08;13.33;;;7.50;;
41343;SDS011;27089;50.022;7.604;2023-11-21T13:28:36;9.13;;;6.50;;
41343;SDS011;27089;50.022;7.604;2023-11-21T13:31:05;10.20;;;6.33;;
41343;SDS011;27089;50.022;7.604;2023-11-21T13:33:46;14.03;;;6.57;;
41343;SDS011;27089;50.022;7.604;2023-11-21T13:36:16;10.00;;;6.20;;
41343;SDS011;27089;50.022;7.604;2023-11-21T13:38:49;13.30;;;6.13;;
41343;SDS011;27089;50.022;7.604;2023-11-21T13:41:17;10.23;;;6.70;;
41343;SDS011;27089;50.022;7.604;2023-11-21T13:43:44;7.83;;;6.03;;
41343;SDS011;27089;50.022;7.604;2023-11-21T13:46:17;11.63;;;6.83;;
41343;SDS011;27089;50.022;7.604;2023-11-21T13:48:47;12.03;;;7.13;;
41343;SDS011;27089;50.022;7.604;2023-11-21T13:51:16;10.07;;;6.73;;
41343;SDS011;27089;50.022;7.604;2023-11-21T13:53:43;13.10;;;6.87;;
41343;SDS011;27089;50.022;7.604;2023-11-21T13:56:14;10.20;;;6.40;;
41343;SDS011;27089;50.022;7.604;2023-11-21T13:58:45;13.87;;;7.53;;
41343;SDS011;27089;50.022;7.604;2023-11-21T14:01:16;11.43;;;7.20;;
41343;SDS011;27089;50.022;7.604;2023-11-21T14:04:06;13.03;;;7.13;;
41343;SDS011;27089;50.022;7.604;2023-11-21T14:06:44;11.93;;;7.80;;
41343;SDS011;27089;50.022;7.604;2023-11-21T14:09:14;12.00;;;7.30;;
41343;SDS011;27089;50.022;7.604;2023-11-21T14:11:50;11.83;;;7.37;;
41343;SDS011;27089;50.022;7.604;2023-11-21T14:14:18;15.00;;;8.43;;
41343;SDS011;27089;50.022;7.604;2023-11-21T14:16:46;11.77;;;7.20;;
41343;SDS011;27089;50.022;7.604;2023-11-21T14:19:13;12.47;;;7.47;;
41343;SDS011;27089;50.022;7.604;2023-11-21T14:21:42;14.10;;;8.40;;
41343;SDS011;27089;50.022;7.604;2023-11-21T14:24:10;13.63;;;8.03;;
41343;SDS011;27089;50.022;7.604;2023-11-21T14:26:38;9.53;;;7.10;;
41343;SDS011;27089;50.022;7.604;2023-11-21T14:29:12;14.23;;;7.57;;
41343;SDS011;27089;50.022;7.604;2023-11-21T14:31:41;10.83;;;6.87;;
41343;SDS011;27089;50.022;7.604;2023-11-21T14:34:08;13.13;;;7.17;;
41343;SDS011;27089;50.022;7.604;2023-11-21T14:36:37;10.97;;;7.00;;
41343;SDS011;27089;50.022;7.604;2023-11-21T14:39:05;11.10;;;6.80;;
41343;SDS011;27089;50.022;7.604;2023-11-21T14:41:36;11.03;;;6.70;;
41343;SDS011;27089;50.022;7.604;2023-11-21T14:44:04;37.00;;;19.93;;
41343;SDS011;27089;50.022;7.604;2023-11-21T14:46:38;45.57;;;22.07;;
41343;SDS011;27089;50.022;7.604;2023-11-21T14:49:09;15.03;;;7.83;;
41343;SDS011;27089;50.022;7.604;2023-11-21T14:51:44;13.80;;;6.73;;
41343;SDS011;27089;50.022;7.604;2023-11-21T14:54:25;12.70;;;7.20;;
41343;SDS011;27089;50.022;7.604;2023-11-21T14:57:05;14.33;;;6.30;;